»·PEaware :: SWA1337 KSLC-KLAS

SWA1337 :: KSLC-KLAS

FLIGHT INFORMATION

Flight Status: Arrived
Operator:
Southwest Airlines
More flights by this operator :: More flights under this callsign
Pilot: Ben F. (2808)
Aircraft: BOEING 737-300
(B733)
More flights by this aircraft type
Origin: KSLC Salt Lake City Intl
United States
Destination: KLAS McCarran Intl
United States
More flights between these airports :: More routes between these airports
Route: ZIONZ1 EHK KSINO SITEE3
File this flight plan on PilotEdge
Remarks:
Altitude:
(Current/Filed)
32,000ft
Speed:
(Current/Filed)
442kts
Departed: 07-Sep-18 07:53 AM
Arrived: 07-Sep-18 08:48 AM
Distance/Time
Traveled:
319nm/0:55
Distance/Time
To Go:
Arrived

Flight Plot

Page will automatically refresh every two minutes.

Flight plan parsing failed; only flown route is shown


Map Options




Map Legend


Flown Route
Filed Route
Departure Airport
Arrival Airport
Navaid (VOR, NDB)
Fix

Horizontal Profiles

Position Reports

Time Latitude Longitude Heading Altitude Ground
Speed
07-Sep-18 07:38 40.788841 -111.977824 258 4234ft 0kts
07-Sep-18 07:39 40.788841 -111.977824 258 4234ft 0kts
07-Sep-18 07:40 40.788841 -111.977824 258 4234ft 0kts
07-Sep-18 07:41 40.788841 -111.977824 258 4234ft 0kts
07-Sep-18 07:42 40.788841 -111.977824 258 4234ft 0kts
07-Sep-18 07:43 40.788841 -111.977824 258 4234ft 0kts
07-Sep-18 07:44 40.788841 -111.977824 258 4234ft 0kts
07-Sep-18 07:45 40.788841 -111.977824 258 4234ft 0kts
07-Sep-18 07:46 40.788841 -111.977824 258 4234ft 0kts
07-Sep-18 07:47 40.788875 -111.977612 257 4234ft 2kts
07-Sep-18 07:47 40.788829 -111.976994 324 4234ft 2kts
07-Sep-18 07:49 40.788643 -111.976922 354 4234ft 0kts
07-Sep-18 07:50 40.788661 -111.976924 354 4234ft 0kts
07-Sep-18 07:51 40.790902 -111.977187 354 4234ft 18kts
07-Sep-18 07:51 40.795968 -111.977779 354 4234ft 22kts
07-Sep-18 07:53 40.803277 -111.978287 9 4234ft 22kts
07-Sep-18 07:53 40.807114 -111.978499 32 4234ft 0kts
07-Sep-18 07:54 40.805235 -111.976690 175 4234ft 49kts
07-Sep-18 07:55 40.766023 -111.971251 170 4857ft 192kts
07-Sep-18 07:56 40.706670 -111.958482 171 5928ft 242kts
07-Sep-18 07:57 40.633452 -111.943624 177 7909ft 283kts
07-Sep-18 07:58 40.557146 -111.947907 182 10315ft 302kts
07-Sep-18 07:59 40.467395 -111.951740 181 12223ft 342kts
07-Sep-18 08:00 40.369024 -111.945673 177 14376ft 368kts
07-Sep-18 08:01 40.265168 -111.939205 184 16675ft 381kts
07-Sep-18 08:02 40.158672 -111.956018 188 18768ft 394kts
07-Sep-18 08:03 40.048119 -111.972551 188 20711ft 408kts
07-Sep-18 08:04 39.934146 -111.989222 188 22485ft 420kts
07-Sep-18 08:05 39.818907 -112.005986 188 24080ft 431kts
07-Sep-18 08:06 39.698696 -112.023453 188 25462ft 444kts
07-Sep-18 08:07 39.581368 -112.040444 188 26686ft 454kts
07-Sep-18 08:08 39.454589 -112.058722 188 27875ft 464kts
07-Sep-18 08:09 39.327578 -112.076764 188 29379ft 463kts
07-Sep-18 08:10 39.199749 -112.094865 189 30760ft 462kts
07-Sep-18 08:11 39.080877 -112.140464 215 31900ft 450kts
07-Sep-18 08:12 38.972468 -112.222274 214 32303ft 456kts
07-Sep-18 08:13 38.863635 -112.301305 214 32267ft 468kts
07-Sep-18 08:14 38.751075 -112.382696 214 32287ft 467kts
07-Sep-18 08:15 38.638127 -112.464231 214 32293ft 467kts
07-Sep-18 08:16 38.525334 -112.545348 214 32292ft 467kts
07-Sep-18 08:17 38.412340 -112.626317 214 32293ft 467kts
07-Sep-18 08:18 38.301689 -112.705559 214 32294ft 467kts
07-Sep-18 08:20 38.188674 -112.785982 214 32296ft 467kts
07-Sep-18 08:21 38.075380 -112.866297 214 32291ft 468kts
07-Sep-18 08:22 37.961675 -112.946615 214 32324ft 469kts
07-Sep-18 08:23 37.851392 -113.024086 214 32339ft 469kts
07-Sep-18 08:24 37.740083 -113.108116 220 32357ft 464kts
07-Sep-18 08:25 37.634298 -113.198819 220 32344ft 463kts
07-Sep-18 08:26 37.532714 -113.285227 220 32346ft 464kts
07-Sep-18 08:27 37.425995 -113.375689 220 32297ft 464kts
07-Sep-18 08:28 37.319141 -113.465951 220 32200ft 463kts
07-Sep-18 08:29 37.212820 -113.555453 220 32183ft 462kts
07-Sep-18 08:30 37.106052 -113.645022 219 32182ft 463kts
07-Sep-18 08:31 37.006472 -113.728544 216 28960ft 477kts
07-Sep-18 08:32 36.899356 -113.817750 214 26168ft 468kts
07-Sep-18 08:33 36.794409 -113.904698 213 23718ft 452kts
07-Sep-18 08:34 36.692044 -113.989425 212 21150ft 438kts
07-Sep-18 08:35 36.595191 -114.069342 212 18878ft 406kts
07-Sep-18 08:36 36.528736 -114.175961 237 16678ft 380kts
07-Sep-18 08:37 36.473966 -114.283605 236 14683ft 356kts
07-Sep-18 08:38 36.423367 -114.382367 236 12864ft 323kts
07-Sep-18 08:39 36.376876 -114.472687 236 11935ft 309kts
07-Sep-18 08:40 36.330392 -114.562721 237 11032ft 304kts
07-Sep-18 08:41 36.279407 -114.638392 199 9818ft 285kts
07-Sep-18 08:42 36.206248 -114.670142 198 8996ft 284kts
07-Sep-18 08:43 36.134416 -114.701241 198 8272ft 255kts
07-Sep-18 08:44 36.076095 -114.739460 243 7947ft 244kts
07-Sep-18 08:45 36.071181 -114.823648 275 7268ft 257kts
07-Sep-18 08:46 36.073876 -114.909927 270 5619ft 236kts
07-Sep-18 08:47 36.073730 -114.982693 270 4443ft 188kts
07-Sep-18 08:48 36.073728 -115.044076 270 3467ft 159kts
07-Sep-18 08:49 36.073824 -115.097807 270 2612ft 156kts
07-Sep-18 08:50 36.073700 -115.143820 299 2148ft 37kts
07-Sep-18 08:51 36.077469 -115.146652 342 2148ft 1kts
07-Sep-18 08:52 36.079579 -115.146173 341 2148ft 4kts
07-Sep-18 08:53 36.079784 -115.146265 339 2148ft 0kts
07-Sep-18 08:54 36.079784 -115.146265 339 2148ft 0kts

Navigation Log

Ident Type
Flight plan parsing failed, navigation log unavailable